createdAt,value
2022-11-05T00:02:48.070Z,100892.25
2022-11-05T00:06:11.503Z,100893.19
2022-11-05T00:09:32.408Z,100902.00
2022-11-05T00:12:52.545Z,100900.38
2022-11-05T00:16:13.471Z,100908.28
2022-11-05T00:19:16.766Z,100899.50
2022-11-05T00:22:37.292Z,100910.16
2022-11-05T00:25:41.452Z,100904.81
2022-11-05T00:28:44.710Z,100918.13
2022-11-05T00:31:47.587Z,100925.16
2022-11-05T00:34:50.363Z,100929.56
2022-11-05T00:37:54.169Z,100924.25
2022-11-05T00:40:58.549Z,100929.56
2022-11-05T00:44:19.285Z,100927.78
2022-11-05T00:47:38.903Z,100938.41
2022-11-05T00:50:41.773Z,100938.44
2022-11-05T00:53:44.571Z,100932.28
2022-11-05T00:56:48.762Z,100937.63
2022-11-05T00:59:51.552Z,100941.19
2022-11-05T01:02:54.582Z,100943.84
2022-11-05T01:05:59.970Z,100949.16
2022-11-05T01:09:02.763Z,100942.13
2022-11-05T01:12:07.273Z,100946.50
2022-11-05T01:15:10.528Z,100950.94
2022-11-05T01:18:13.362Z,100953.56
2022-11-05T01:21:16.621Z,100949.16
2022-11-05T01:24:19.440Z,100952.69
2022-11-05T01:27:23.814Z,100955.34
2022-11-05T01:30:26.609Z,100953.56
2022-11-05T01:33:29.372Z,100968.66
2022-11-05T01:36:32.202Z,100966.06
2022-11-05T01:39:35.063Z,100966.06
2022-11-05T01:42:39.309Z,100972.22
2022-11-05T01:45:43.005Z,100969.63
2022-11-05T01:48:46.668Z,100970.50
2022-11-05T01:51:51.275Z,100973.16
2022-11-05T01:54:54.323Z,100977.53
2022-11-05T01:58:01.654Z,100983.72
2022-11-05T02:01:04.759Z,100979.28
2022-11-05T02:04:11.091Z,100982.03
2022-11-05T02:07:14.957Z,100982.84
2022-11-05T02:10:19.123Z,100986.38
2022-11-05T02:13:23.317Z,100984.69
2022-11-05T02:16:38.769Z,100987.34
2022-11-05T02:20:09.473Z,100986.47
2022-11-05T02:23:47.530Z,100996.22
2022-11-05T02:27:05.709Z,100996.22
2022-11-05T02:30:30.190Z,101006.00
2022-11-05T02:33:40.857Z,101004.19
2022-11-05T02:36:49.589Z,101009.53
2022-11-05T02:40:01.792Z,101017.50
2022-11-05T02:43:16.159Z,101021.91
2022-11-05T02:46:33.185Z,101022.81
2022-11-05T02:49:45.481Z,101029.88
2022-11-05T02:52:59.093Z,101041.44
2022-11-05T02:56:06.659Z,101041.44
2022-11-05T02:59:09.509Z,101042.38
2022-11-05T03:02:13.997Z,101042.38
2022-11-05T03:05:16.926Z,101041.50
2022-11-05T03:08:29.296Z,101050.34
2022-11-05T03:11:35.432Z,101052.13
2022-11-05T03:14:44.777Z,101057.47
2022-11-05T03:17:59.504Z,101063.66
2022-11-05T03:21:05.784Z,101064.50
2022-11-05T03:24:14.501Z,101065.38
2022-11-05T03:27:22.425Z,101065.38
2022-11-05T03:30:26.056Z,101070.69
2022-11-05T03:33:34.580Z,101076.88
2022-11-05T03:36:41.463Z,101085.75
2022-11-05T03:39:47.099Z,101083.19
2022-11-05T03:42:55.200Z,101092.91
2022-11-05T03:46:01.977Z,101090.25
2022-11-05T03:49:09.277Z,101094.69
2022-11-05T03:52:17.396Z,101096.47
2022-11-05T03:55:24.044Z,101098.25
2022-11-05T03:58:28.194Z,101100.88
2022-11-05T04:01:32.010Z,101110.66
2022-11-05T04:04:36.315Z,101109.78
2022-11-05T04:07:56.496Z,101122.16
2022-11-05T04:11:17.139Z,101124.81
2022-11-05T04:14:19.903Z,101119.50
2022-11-05T04:17:21.788Z,101122.19
2022-11-05T04:20:43.459Z,101128.38
2022-11-05T04:24:03.872Z,101131.03
2022-11-05T04:27:07.617Z,101134.63
2022-11-05T04:30:20.366Z,101140.81
2022-11-05T04:33:23.312Z,101149.72
2022-11-05T04:36:27.539Z,101147.06
2022-11-05T04:39:30.323Z,101150.56
2022-11-05T04:42:33.131Z,101147.91
2022-11-05T04:45:37.138Z,101150.56
2022-11-05T04:48:39.956Z,101150.56
2022-11-05T04:51:44.458Z,101151.44
2022-11-05T04:54:47.263Z,101150.56
2022-11-05T04:57:50.741Z,101157.63
2022-11-05T05:00:53.655Z,101161.19
2022-11-05T05:03:56.672Z,101170.06
2022-11-05T05:07:00.840Z,101165.69
2022-11-05T05:10:06.790Z,101170.13
2022-11-05T05:13:11.697Z,101173.66
2022-11-05T05:16:20.803Z,101171.84
2022-11-05T05:19:25.219Z,101183.41
2022-11-05T05:22:28.502Z,101180.75
2022-11-05T05:25:32.061Z,101172.78
2022-11-05T05:28:34.888Z,101178.97
2022-11-05T05:31:38.132Z,101180.75
2022-11-05T05:34:40.934Z,101177.16
2022-11-05T05:37:45.510Z,101182.47
2022-11-05T05:40:48.329Z,101196.72
2022-11-05T05:43:51.631Z,101208.22
2022-11-05T05:46:55.601Z,101209.06
2022-11-05T05:49:58.497Z,101207.34
2022-11-05T05:53:02.717Z,101194.94
2022-11-05T05:56:06.123Z,101208.22
2022-11-05T05:59:08.946Z,101210.88
2022-11-05T06:02:12.592Z,101219.81
2022-11-05T06:05:15.494Z,101221.53
2022-11-05T06:08:19.651Z,101238.34
2022-11-05T06:11:22.455Z,101243.66
2022-11-05T06:14:25.270Z,101243.66
2022-11-05T06:17:28.129Z,101252.56
2022-11-05T06:20:30.911Z,101266.72
2022-11-05T06:23:36.502Z,101269.38
2022-11-05T06:26:42.891Z,101269.38
2022-11-05T06:29:45.668Z,101272.03
2022-11-05T06:32:48.815Z,101274.69
2022-11-05T06:35:51.722Z,101280.97
2022-11-05T06:38:55.915Z,101288.94
2022-11-05T06:42:28.348Z,101294.25
2022-11-05T06:45:21.991Z,101299.56
2022-11-05T06:48:25.262Z,101306.63
2022-11-05T06:51:28.201Z,101311.94
2022-11-05T06:54:32.369Z,101313.72
2022-11-05T06:57:35.126Z,101324.34
2022-11-05T07:00:38.078Z,101324.34
2022-11-05T07:03:40.938Z,101327.88
2022-11-05T07:06:43.848Z,101333.22
2022-11-05T07:09:48.031Z,101338.53
2022-11-05T07:12:50.991Z,101339.41
2022-11-05T07:15:53.802Z,101341.19
2022-11-05T07:18:56.681Z,101346.50
2022-11-05T07:21:59.502Z,101352.75
2022-11-05T07:25:04.189Z,101356.28
2022-11-05T07:28:07.693Z,101343.84
2022-11-05T07:31:10.467Z,101350.94
2022-11-05T07:34:13.269Z,101348.31
2022-11-05T07:37:16.792Z,101363.31
2022-11-05T07:40:21.975Z,101371.28
2022-11-05T07:43:24.744Z,101368.63
2022-11-05T07:46:27.641Z,101366.91
2022-11-05T07:49:30.459Z,101372.22
2022-11-05T07:52:33.491Z,101370.44
2022-11-05T07:55:38.208Z,101371.31
2022-11-05T07:58:41.094Z,101371.31
2022-11-05T08:01:44.067Z,101372.22
2022-11-05T08:04:47.028Z,101389.06
2022-11-05T08:07:49.820Z,101384.66
2022-11-05T08:10:53.947Z,101385.53
2022-11-05T08:13:56.718Z,101390.84
2022-11-05T08:16:59.588Z,101394.38
2022-11-05T08:20:02.389Z,101389.91
2022-11-05T08:23:05.392Z,101394.38
2022-11-05T08:26:09.661Z,101400.53
2022-11-05T08:29:12.507Z,101413.81
2022-11-05T08:32:15.293Z,101412.97
2022-11-05T08:35:18.293Z,101415.66
2022-11-05T08:38:21.090Z,101415.66
2022-11-05T08:41:25.377Z,101416.50
2022-11-05T08:44:28.171Z,101415.66
2022-11-05T08:47:30.957Z,101420.09
2022-11-05T08:50:34.853Z,101419.19
2022-11-05T08:53:37.782Z,101425.41
2022-11-05T08:56:41.925Z,101432.44
2022-11-05T08:59:44.697Z,101422.69
2022-11-05T09:02:47.471Z,101418.25
2022-11-05T09:05:50.290Z,101424.44
2022-11-05T09:08:53.096Z,101430.63
2022-11-05T09:12:11.722Z,101437.72
2022-11-05T09:15:15.685Z,101452.81
2022-11-05T09:18:20.191Z,101451.94
2022-11-05T09:21:22.987Z,101459.03
2022-11-05T09:24:25.846Z,101465.22
2022-11-05T09:27:30.014Z,101466.09
2022-11-05T09:30:32.791Z,101472.34
2022-11-05T09:33:36.868Z,101478.53
2022-11-05T09:36:39.662Z,101479.41
2022-11-05T09:39:42.559Z,101477.63
2022-11-05T09:42:47.575Z,101489.13
2022-11-05T09:45:54.229Z,101486.47
2022-11-05T09:49:03.315Z,101485.53
2022-11-05T09:52:08.165Z,101488.19
2022-11-05T09:55:20.924Z,101504.16
2022-11-05T09:58:45.472Z,101490.84
2022-11-05T10:01:50.115Z,101501.50
2022-11-05T10:05:04.902Z,101505.94
2022-11-05T10:08:16.880Z,101510.41
2022-11-05T10:11:22.910Z,101513.91
2022-11-05T10:14:31.763Z,101513.06
2022-11-05T10:17:39.321Z,101514.78
2022-11-05T10:20:43.859Z,101507.69
2022-11-05T10:23:49.272Z,101514.72
2022-11-05T10:26:54.235Z,101499.66
2022-11-05T10:29:58.667Z,101510.28
2022-11-05T10:33:05.397Z,101512.94
2022-11-05T10:36:12.590Z,101511.22
2022-11-05T10:39:17.740Z,101510.28
2022-11-05T10:42:35.016Z,101513.88
2022-11-05T10:45:51.080Z,101520.94
2022-11-05T10:49:15.120Z,101529.84
2022-11-05T10:52:24.219Z,101536.88
2022-11-05T10:55:29.626Z,101535.16
2022-11-05T10:58:35.327Z,101535.16
2022-11-05T11:01:39.632Z,101533.34
2022-11-05T11:04:42.728Z,101536.00
2022-11-05T11:07:45.752Z,101543.97
2022-11-05T11:10:51.859Z,101543.97
2022-11-05T11:14:05.766Z,101538.66
2022-11-05T11:17:26.633Z,101542.22
2022-11-05T11:20:31.629Z,101537.75
2022-11-05T11:23:39.676Z,101538.66
2022-11-05T11:26:43.194Z,101536.88
2022-11-05T11:29:50.822Z,101536.88
2022-11-05T11:33:06.249Z,101536.00
2022-11-05T11:36:20.642Z,101542.22
2022-11-05T11:39:26.267Z,101545.81
2022-11-05T11:42:32.640Z,101545.81
2022-11-05T11:45:40.125Z,101542.22
2022-11-05T11:48:47.541Z,101539.53
2022-11-05T11:51:50.537Z,101549.22
2022-11-05T11:54:54.186Z,101542.16
2022-11-05T11:58:06.915Z,101544.81
2022-11-05T12:01:38.264Z,101547.47
2022-11-05T12:04:55.245Z,101541.31
2022-11-05T12:08:02.544Z,101540.44
2022-11-05T12:11:12.026Z,101542.22
2022-11-05T12:14:24.564Z,101547.53
2022-11-05T12:17:39.074Z,101552.84
2022-11-05T12:21:01.418Z,101555.50
2022-11-05T12:24:32.860Z,101549.28
2022-11-05T12:27:48.214Z,101551.00
2022-11-05T12:31:00.909Z,101551.94
2022-11-05T12:34:20.631Z,101549.28
2022-11-05T12:37:34.722Z,101548.34
2022-11-05T12:40:48.355Z,101548.41
2022-11-05T12:44:06.514Z,101557.19
2022-11-05T12:47:22.395Z,101559.91
2022-11-05T12:50:32.532Z,101560.75
2022-11-05T12:53:55.560Z,101553.72
2022-11-05T12:57:04.362Z,101552.84
2022-11-05T13:00:10.525Z,101544.00
2022-11-05T13:03:29.952Z,101544.88
2022-11-05T13:06:39.635Z,101546.66
2022-11-05T13:09:50.363Z,101559.91
2022-11-05T13:13:00.248Z,101554.59
2022-11-05T13:16:07.523Z,101559.91
2022-11-05T13:19:18.121Z,101561.63
2022-11-05T13:22:34.467Z,101556.31
2022-11-05T13:25:42.891Z,101558.09
2022-11-05T13:28:52.925Z,101559.91
2022-11-05T13:31:59.980Z,101566.09
2022-11-05T13:35:05.880Z,101567.03
2022-11-05T13:38:33.187Z,101578.53
2022-11-05T13:41:58.355Z,101574.13
2022-11-05T13:45:31.103Z,101580.31
2022-11-05T13:48:55.846Z,101590.06
2022-11-05T13:52:04.602Z,101587.41
2022-11-05T13:55:34.530Z,101597.16
2022-11-05T13:58:59.710Z,101598.00
2022-11-05T14:02:05.578Z,101595.31
2022-11-05T14:05:21.317Z,101596.22
2022-11-05T14:08:28.778Z,101605.13
2022-11-05T14:11:34.777Z,101602.47
2022-11-05T14:14:48.493Z,101605.13
2022-11-05T14:17:57.144Z,101612.22
2022-11-05T14:21:01.749Z,101606.91
2022-11-05T14:24:25.672Z,101606.03
2022-11-05T14:27:43.897Z,101606.03
2022-11-05T14:30:48.852Z,101603.38
2022-11-05T14:34:04.915Z,101607.78
2022-11-05T14:37:32.341Z,101608.63
2022-11-05T14:40:38.096Z,101621.09
2022-11-05T14:43:47.762Z,101619.25
2022-11-05T14:46:55.391Z,101626.41
2022-11-05T14:50:02.450Z,101632.56
2022-11-05T14:53:14.156Z,101635.22
2022-11-05T14:56:20.203Z,101638.78
2022-11-05T14:59:53.824Z,101637.06
2022-11-05T15:03:01.340Z,101637.97
2022-11-05T15:06:26.371Z,101637.97
2022-11-05T15:09:34.773Z,101645.94
2022-11-05T15:12:41.020Z,101636.22
2022-11-05T15:15:49.039Z,101646.81
2022-11-05T15:18:55.441Z,101644.16
2022-11-05T15:22:00.159Z,101645.88
2022-11-05T15:25:04.958Z,101639.72
2022-11-05T15:28:17.013Z,101648.53
2022-11-05T15:31:29.916Z,101645.03
2022-11-05T15:34:35.848Z,101653.91
2022-11-05T15:37:38.626Z,101653.91
2022-11-05T15:40:41.502Z,101651.25
2022-11-05T15:43:47.921Z,101657.44
2022-11-05T15:47:06.305Z,101658.34
2022-11-05T15:50:15.237Z,101655.75
2022-11-05T15:53:56.007Z,101665.50
2022-11-05T15:56:57.610Z,101663.72
2022-11-05T16:00:03.613Z,101664.56
2022-11-05T16:03:19.575Z,101657.44
2022-11-05T16:06:28.402Z,101654.78
2022-11-05T16:09:33.712Z,101657.44
2022-11-05T16:12:37.871Z,101659.16
2022-11-05T16:15:40.843Z,101661.88
2022-11-05T16:18:45.657Z,101664.56
2022-11-05T16:21:56.209Z,101664.56
2022-11-05T16:24:58.964Z,101665.50
2022-11-05T16:28:02.540Z,101662.81
2022-11-05T16:31:06.701Z,101666.34
2022-11-05T16:34:27.461Z,101662.81
2022-11-05T16:37:39.680Z,101661.94
2022-11-05T16:40:42.677Z,101673.47
2022-11-05T16:43:53.535Z,101671.66
2022-11-05T16:46:56.482Z,101677.84
2022-11-05T16:49:59.282Z,101680.50
2022-11-05T16:53:03.412Z,101680.50
2022-11-05T16:56:06.878Z,101683.16
2022-11-05T16:59:13.338Z,101691.16
2022-11-05T17:02:16.442Z,101690.28
2022-11-05T17:05:22.717Z,101702.72
2022-11-05T17:08:26.911Z,101693.88
2022-11-05T17:11:29.958Z,101709.81
2022-11-05T17:14:32.755Z,101708.94
2022-11-05T17:17:35.543Z,101708.94
2022-11-05T17:20:41.570Z,101714.25
2022-11-05T17:23:45.727Z,101719.53
2022-11-05T17:26:48.537Z,101723.13
2022-11-05T17:29:51.318Z,101720.41
2022-11-05T17:32:54.663Z,101724.00
2022-11-05T17:35:57.608Z,101722.19
2022-11-05T17:39:01.830Z,101724.00
2022-11-05T17:42:04.934Z,101724.91
2022-11-05T17:45:09.266Z,101736.41
2022-11-05T17:48:12.723Z,101746.19
2022-11-05T17:51:19.017Z,101751.50
2022-11-05T17:54:23.349Z,101750.63
2022-11-05T17:57:26.222Z,101755.94
2022-11-05T18:00:29.898Z,101752.44
2022-11-05T18:03:32.916Z,101748.00
2022-11-05T18:06:36.098Z,101751.50
2022-11-05T18:09:40.233Z,101751.50
2022-11-05T18:12:43.904Z,101747.94
2022-11-05T18:15:46.774Z,101745.28
2022-11-05T18:18:49.563Z,101755.03
2022-11-05T18:21:52.332Z,101762.13
2022-11-05T18:24:56.502Z,101763.06
2022-11-05T18:27:59.296Z,101766.56
2022-11-05T18:31:02.084Z,101765.72
2022-11-05T18:34:05.021Z,101764.84
2022-11-05T18:37:07.790Z,101759.53
2022-11-05T18:40:13.063Z,101756.91
2022-11-05T18:43:15.869Z,101756.91
2022-11-05T18:46:43.522Z,101756.00
2022-11-05T18:49:42.402Z,101756.88
2022-11-05T18:52:45.456Z,101748.91
2022-11-05T18:55:49.640Z,101747.13
2022-11-05T18:59:14.730Z,101754.16
2022-11-05T19:02:17.577Z,101750.69
2022-11-05T19:05:28.986Z,101761.31
2022-11-05T19:08:33.221Z,101763.97
2022-11-05T19:11:37.522Z,101763.97
2022-11-05T19:14:40.302Z,101760.44
2022-11-05T19:17:43.089Z,101763.09
2022-11-05T19:20:45.901Z,101767.53
2022-11-05T19:23:49.501Z,101766.69
2022-11-05T19:26:53.798Z,101772.00
2022-11-05T19:29:56.613Z,101774.63
2022-11-05T19:32:59.631Z,101764.88
2022-11-05T19:36:06.061Z,101764.84
2022-11-05T19:39:10.996Z,101763.97
2022-11-05T19:42:15.329Z,101774.63
2022-11-05T19:45:42.955Z,101771.06
2022-11-05T19:48:41.454Z,101769.28
2022-11-05T19:51:44.509Z,101772.84
2022-11-05T19:54:47.402Z,101766.69
2022-11-05T19:57:51.645Z,101768.47
2022-11-05T20:00:56.411Z,101766.69
2022-11-05T20:04:02.443Z,101772.00
2022-11-05T20:07:05.494Z,101774.66
2022-11-05T20:10:09.168Z,101772.88
2022-11-05T20:13:19.495Z,101779.97
2022-11-05T20:16:24.890Z,101773.78
2022-11-05T20:19:27.720Z,101782.66
2022-11-05T20:22:30.495Z,101779.94
2022-11-05T20:25:33.346Z,101781.78
2022-11-05T20:28:38.601Z,101781.78
2022-11-05T20:31:41.838Z,101787.09
2022-11-05T20:34:44.655Z,101786.16
2022-11-05T20:37:53.615Z,101790.63
2022-11-05T20:40:57.114Z,101793.28
2022-11-05T20:44:01.351Z,101792.44
2022-11-05T20:47:04.294Z,101794.19
2022-11-05T20:50:08.791Z,101799.53
2022-11-05T20:53:12.675Z,101801.25
2022-11-05T20:56:20.062Z,101806.56
2022-11-05T20:59:24.488Z,101811.03
2022-11-05T21:02:27.457Z,101807.44
2022-11-05T21:05:35.359Z,101806.56
2022-11-05T21:08:38.946Z,101795.06
2022-11-05T21:11:55.644Z,101803.03
2022-11-05T21:14:59.775Z,101794.19
2022-11-05T21:18:03.353Z,101799.53
2022-11-05T21:21:07.415Z,101804.84
2022-11-05T21:24:10.298Z,101810.16
2022-11-05T21:27:13.105Z,101808.41
2022-11-05T21:30:17.303Z,101812.81
2022-11-05T21:33:20.329Z,101811.06
2022-11-05T21:36:23.141Z,101824.34
2022-11-05T21:39:26.035Z,101815.47
2022-11-05T21:42:30.130Z,101818.13
2022-11-05T21:45:34.759Z,101819.88
2022-11-05T21:48:37.562Z,101811.03
2022-11-05T21:51:57.727Z,101815.47
2022-11-05T21:55:18.291Z,101815.47
2022-11-05T21:58:38.823Z,101815.47
2022-11-05T22:01:43.273Z,101811.94
2022-11-05T22:04:48.008Z,101812.88
2022-11-05T22:07:50.797Z,101813.72
2022-11-05T22:10:53.561Z,101806.69
2022-11-05T22:13:56.357Z,101804.00
2022-11-05T22:17:00.835Z,101804.91
2022-11-05T22:20:04.217Z,101813.72
2022-11-05T22:23:11.115Z,101809.28
2022-11-05T22:26:16.462Z,101813.72
2022-11-05T22:29:19.489Z,101809.28
2022-11-05T22:32:23.821Z,101806.63
2022-11-05T22:35:26.599Z,101809.28
2022-11-05T22:38:31.185Z,101813.72
2022-11-05T22:41:34.322Z,101812.88
2022-11-05T22:44:38.416Z,101806.69
2022-11-05T22:47:43.624Z,101810.22
2022-11-05T22:50:46.433Z,101807.56
2022-11-05T22:53:49.886Z,101815.56
2022-11-05T22:56:53.791Z,101815.56
2022-11-05T22:59:56.559Z,101815.56
2022-11-05T23:03:01.271Z,101813.81
2022-11-05T23:06:07.470Z,101811.16
2022-11-05T23:09:32.584Z,101813.78
2022-11-05T23:12:37.864Z,101818.22
2022-11-05T23:15:58.349Z,101820.88
2022-11-05T23:19:20.019Z,101814.72
2022-11-05T23:22:42.442Z,101806.72
2022-11-05T23:25:45.506Z,101812.06
2022-11-05T23:28:48.382Z,101802.31
2022-11-05T23:32:09.588Z,101805.91
2022-11-05T23:35:13.787Z,101812.06
2022-11-05T23:38:34.298Z,101804.09
2022-11-05T23:41:54.411Z,101805.03
2022-11-05T23:45:15.112Z,101802.38
2022-11-05T23:48:21.650Z,101807.69
2022-11-05T23:51:26.492Z,101806.75
2022-11-05T23:54:29.459Z,101789.06
2022-11-05T23:57:32.249Z,101794.38
